Terminal Aerodrome Forecast
Issued by NWS

Home | Current Version | Previous Version | Text Only | Print | Product List | Glossary On
Versions: 1 2 3 4 5 6 7 8 9 10 11 12 13 14 15 16 17 18 19
000
FTUS43 KAPX 250352 AAB
TAFMBL
TAF AMD
KMBL 250352Z 2504/2524 25007G16KT P6SM -RA BKN028 OVC035
     FM250600 30012G19KT P6SM -RA SCT018 OVC025
     FM250900 32012G20KT P6SM VCSH BKN018
     FM251600 32013G25KT P6SM VCSH BKN025=

USA.gov is the U.S. government's official web portal to all federal, state and local government web resources and services.